Time;durP1;ratioP1;P1;durP2;ratioP2;P2;SDS_P1;SDS_P2;PMS_P1;PMS_P2;Temp;Humidity;BMP_temperature;BMP_pressure;BME280_temperature;BME280_humidity;BME280_pressure;Samples;Min_cycle;Max_cycle;Signal;HPM_P1;HPM_P2
2024/03/19 00:00:39;;;;;;;3.88;2.30;;;2.70;96.50;;;;;;5081974;28;20036;-70
2024/03/19 00:03:06;;;;;;;2.00;1.77;;;2.80;96.50;;;;;;5081056;28;20115;-72
2024/03/19 00:05:32;;;;;;;6.13;2.30;;;2.80;96.30;;;;;;5081797;28;20028;-72
2024/03/19 00:07:58;;;;;;;4.93;2.30;;;2.90;96.20;;;;;;5081185;28;20032;-72
2024/03/19 00:10:23;;;;;;;8.60;2.03;;;2.90;96.20;;;;;;5080727;28;20085;-72
2024/03/19 00:12:49;;;;;;;6.28;2.70;;;2.80;96.00;;;;;;5080630;28;20873;-72
2024/03/19 00:15:15;;;;;;;4.13;2.08;;;2.70;96.10;;;;;;5081016;28;20020;-71
2024/03/19 00:17:41;;;;;;;4.95;2.63;;;2.70;96.00;;;;;;5077542;28;20517;-71
2024/03/19 00:20:09;;;;;;;4.45;1.70;;;2.70;96.20;;;;;;5080356;28;20032;-71
2024/03/19 00:22:36;;;;;;;2.38;1.90;;;2.70;96.20;;;;;;5077641;28;20110;-72
2024/03/19 00:25:02;;;;;;;4.43;1.90;;;2.70;96.30;;;;;;5078767;28;20410;-72
2024/03/19 00:27:28;;;;;;;3.05;1.90;;;2.70;96.30;;;;;;5081389;28;20031;-71
2024/03/19 00:29:54;;;;;;;4.28;2.22;;;2.70;96.30;;;;;;5078258;28;20039;-71
2024/03/19 00:32:20;;;;;;;2.95;1.90;;;2.60;96.60;;;;;;5080809;28;20107;-71
2024/03/19 00:34:47;;;;;;;4.70;2.00;;;2.60;96.80;;;;;;5080826;28;20400;-72
2024/03/19 00:37:13;;;;;;;2.03;1.80;;;2.60;97.00;;;;;;5080578;28;20028;-72
2024/03/19 00:39:39;;;;;;;4.90;2.00;;;2.60;97.00;;;;;;5079725;28;20910;-72
2024/03/19 00:42:04;;;;;;;2.95;2.00;;;2.50;97.00;;;;;;5081871;28;20526;-71
2024/03/19 00:44:30;;;;;;;3.20;1.80;;;2.50;97.00;;;;;;5080638;28;20024;-72
2024/03/19 00:46:58;;;;;;;5.85;1.70;;;2.50;97.50;;;;;;5082093;28;20032;-71
2024/03/19 00:49:24;;;;;;;3.05;2.17;;;2.40;97.20;;;;;;5085692;27;20032;-72
2024/03/19 00:51:50;;;;;;;3.13;2.13;;;2.40;97.30;;;;;;5084395;28;20111;-72
2024/03/19 00:54:16;;;;;;;2.97;1.63;;;2.40;97.40;;;;;;5085068;28;20046;-72
2024/03/19 00:56:42;;;;;;;3.55;1.98;;;2.40;97.50;;;;;;5082524;28;20032;-72
2024/03/19 00:59:07;;;;;;;4.70;2.10;;;2.40;97.50;;;;;;5084258;28;20493;-72
2024/03/19 01:01:35;;;;;;;2.47;1.95;;;2.30;97.70;;;;;;5085222;28;20043;-72
2024/03/19 01:04:07;;;;;;;2.83;2.00;;;2.30;98.10;;;;;;5086766;28;20929;-72
2024/03/19 01:06:33;;;;;;;3.28;1.80;;;2.30;98.10;;;;;;5081527;28;20063;-72
2024/03/19 01:08:59;;;;;;;4.22;2.42;;;2.30;98.10;;;;;;5084923;28;20170;-71
2024/03/19 01:11:25;;;;;;;3.63;2.15;;;2.30;98.00;;;;;;5085961;28;20032;-72
2024/03/19 01:13:50;;;;;;;3.90;2.13;;;2.30;97.90;;;;;;5083780;28;20086;-71
2024/03/19 01:16:16;;;;;;;4.95;2.08;;;2.30;98.30;;;;;;5082789;28;20855;-71
2024/03/19 01:18:42;;;;;;;2.92;1.70;;;2.40;97.90;;;;;;5084656;28;20788;-71
2024/03/19 01:21:08;;;;;;;3.80;2.00;;;2.40;97.90;;;;;;5084742;28;20031;-71
2024/03/19 01:23:34;;;;;;;7.32;2.63;;;2.30;97.90;;;;;;5083279;28;20555;-71
2024/03/19 01:26:00;;;;;;;4.30;2.25;;;2.30;98.10;;;;;;5082629;28;20016;-71
2024/03/19 01:28:26;;;;;;;2.40;2.10;;;2.30;98.20;;;;;;5080920;28;20090;-71
2024/03/19 01:30:51;;;;;;;3.33;2.28;;;2.30;98.40;;;;;;5082330;28;20503;-71
2024/03/19 01:33:18;;;;;;;3.88;2.28;;;2.30;98.40;;;;;;5083029;28;20028;-71
2024/03/19 01:35:44;;;;;;;3.35;2.10;;;2.30;98.20;;;;;;5081874;28;20805;-71
2024/03/19 01:38:10;;;;;;;4.30;1.85;;;2.40;98.20;;;;;;5079147;28;20028;-72
2024/03/19 01:40:36;;;;;;;4.10;2.30;;;2.30;98.10;;;;;;5080717;28;20043;-71
2024/03/19 01:43:10;;;;;;;3.10;1.98;;;2.40;98.00;;;;;;5082494;28;20032;-71
2024/03/19 01:45:36;;;;;;;5.30;2.28;;;2.30;98.20;;;;;;5064487;28;20024;-71
2024/03/19 01:48:02;;;;;;;2.28;2.00;;;2.30;98.50;;;;;;5082582;28;20471;-71
2024/03/19 01:50:28;;;;;;;6.55;2.13;;;2.20;98.70;;;;;;5081496;28;20068;-71
2024/03/19 01:52:54;;;;;;;2.65;1.80;;;2.20;98.40;;;;;;5082450;28;20105;-72
2024/03/19 01:55:23;;;;;;;2.88;2.08;;;2.20;98.60;;;;;;5081948;28;20032;-72
2024/03/19 01:57:51;;;;;;;2.70;1.88;;;2.10;98.80;;;;;;5080514;28;20553;-72
2024/03/19 02:00:17;;;;;;;5.70;1.95;;;2.10;98.70;;;;;;5081172;28;20816;-71
2024/03/19 02:02:43;;;;;;;3.95;2.00;;;2.10;98.80;;;;;;5082162;28;20131;-72
2024/03/19 02:05:10;;;;;;;4.82;1.85;;;2.10;99.00;;;;;;5081926;28;20031;-72
2024/03/19 02:07:36;;;;;;;2.08;1.85;;;2.00;99.20;;;;;;5082729;28;20028;-71
2024/03/19 02:10:03;;;;;;;3.97;2.38;;;2.00;99.30;;;;;;5083298;28;20032;-72
2024/03/19 02:12:29;;;;;;;3.55;2.30;;;2.10;99.50;;;;;;5082691;28;20020;-71
2024/03/19 02:14:55;;;;;;;3.38;2.20;;;2.00;99.50;;;;;;5080154;28;20036;-72
2024/03/19 02:17:22;;;;;;;3.88;2.47;;;2.00;99.50;;;;;;5081311;28;20407;-72
2024/03/19 02:19:49;;;;;;;3.78;1.75;;;2.00;99.50;;;;;;5080294;28;20028;-72
2024/03/19 02:22:15;;;;;;;4.30;2.72;;;2.00;99.50;;;;;;5083259;28;20059;-71
2024/03/19 02:24:43;;;;;;;4.78;2.58;;;2.00;99.60;;;;;;5082557;28;21171;-71
2024/03/19 02:27:09;;;;;;;4.93;2.13;;;2.10;99.60;;;;;;5081749;28;20399;-72
2024/03/19 02:29:36;;;;;;;4.15;2.25;;;2.00;99.70;;;;;;5082662;28;20487;-72
2024/03/19 02:32:01;;;;;;;4.13;2.05;;;2.00;99.80;;;;;;5081960;28;20032;-72
2024/03/19 02:34:27;;;;;;;5.20;2.45;;;2.00;99.80;;;;;;5081194;28;20028;-71
2024/03/19 02:36:53;;;;;;;4.95;2.20;;;2.00;99.70;;;;;;5083978;28;20035;-71
2024/03/19 02:39:19;;;;;;;2.75;2.08;;;2.10;99.70;;;;;;5082990;28;20023;-72
2024/03/19 02:41:45;;;;;;;4.47;2.65;;;2.00;99.90;;;;;;5082152;28;20028;-72
2024/03/19 02:44:11;;;;;;;6.00;2.83;;;2.00;99.90;;;;;;5082191;28;20020;-71
2024/03/19 02:46:37;;;;;;;2.95;2.35;;;2.00;99.90;;;;;;5082263;28;20028;-72
2024/03/19 02:49:04;;;;;;;5.85;2.60;;;2.00;99.90;;;;;;5081691;28;20038;-71
2024/03/19 02:51:30;;;;;;;4.63;2.83;;;2.10;99.70;;;;;;5083484;28;20138;-71
2024/03/19 02:53:55;;;;;;;6.78;2.30;;;2.00;99.60;;;;;;5085346;28;20027;-71
2024/03/19 02:56:21;;;;;;;4.00;2.13;;;2.00;99.80;;;;;;5081973;28;20137;-71
2024/03/19 02:58:47;;;;;;;4.50;2.20;;;2.00;99.60;;;;;;5081831;28;20403;-72
2024/03/19 03:01:13;;;;;;;5.90;2.70;;;2.00;99.80;;;;;;5081169;28;20028;-72
2024/03/19 03:03:39;;;;;;;5.07;2.22;;;2.00;99.90;;;;;;5082261;28;20024;-72
2024/03/19 03:06:05;;;;;;;5.28;2.80;;;1.90;99.90;;;;;;5084150;28;20031;-71
2024/03/19 03:08:31;;;;;;;4.53;2.42;;;1.90;99.90;;;;;;5082113;28;20058;-71
2024/03/19 03:10:57;;;;;;;7.38;2.60;;;1.90;99.90;;;;;;5080628;28;20039;-71
2024/03/19 03:13:23;;;;;;;2.55;1.90;;;1.80;99.90;;;;;;5082210;28;20092;-71
2024/03/19 03:15:49;;;;;;;6.38;2.30;;;1.80;99.90;;;;;;5077913;28;20101;-72
2024/03/19 03:18:15;;;;;;;4.22;2.25;;;1.80;99.90;;;;;;5078281;28;20115;-72
2024/03/19 03:20:41;;;;;;;3.58;2.15;;;1.80;99.90;;;;;;5081692;28;20059;-71
2024/03/19 03:23:07;;;;;;;3.80;2.50;;;1.80;99.90;;;;;;5081655;28;20028;-71
2024/03/19 03:25:33;;;;;;;4.40;2.50;;;1.90;99.90;;;;;;5084637;28;20028;-72
2024/03/19 03:27:59;;;;;;;4.38;2.63;;;1.80;99.90;;;;;;5081812;28;20266;-72
2024/03/19 03:30:26;;;;;;;5.65;2.60;;;1.90;99.90;;;;;;5081571;28;20032;-71
2024/03/19 03:32:52;;;;;;;4.65;2.80;;;1.90;99.90;;;;;;5082252;28;20036;-72
2024/03/19 03:35:19;;;;;;;5.63;2.80;;;2.00;99.90;;;;;;5086158;28;20429;-71
2024/03/19 03:37:45;;;;;;;4.82;2.50;;;2.00;99.90;;;;;;5081910;28;20412;-71
2024/03/19 03:40:17;;;;;;;3.63;2.65;;;2.00;99.90;;;;;;5083419;28;20815;-72
2024/03/19 03:42:44;;;;;;;7.38;2.90;;;2.00;99.90;;;;;;5079412;28;20647;-72
2024/03/19 03:45:13;;;;;;;3.03;2.55;;;1.90;99.90;;;;;;5081103;28;20028;-72
2024/03/19 03:47:39;;;;;;;3.20;2.30;;;1.90;99.90;;;;;;5082196;28;20103;-72
2024/03/19 03:50:08;;;;;;;4.00;2.80;;;1.90;99.90;;;;;;5082722;28;20035;-72
2024/03/19 03:52:34;;;;;;;5.78;2.65;;;1.80;99.90;;;;;;5081288;28;20031;-72
2024/03/19 03:55:08;;;;;;;3.70;2.55;;;1.80;99.90;;;;;;5081825;28;20028;-71
2024/03/19 03:57:38;;;;;;;4.35;2.80;;;1.80;99.90;;;;;;5082380;28;20708;-72
2024/03/19 04:00:08;;;;;;;3.50;2.47;;;1.80;99.90;;;;;;5081666;28;20152;-72
2024/03/19 04:02:37;;;;;;;4.80;2.55;;;1.70;99.90;;;;;;5078594;28;20397;-71
2024/03/19 04:05:03;;;;;;;5.18;2.78;;;1.70;99.90;;;;;;5081749;28;20025;-72
2024/03/19 04:07:30;;;;;;;4.30;2.95;;;1.70;99.90;;;;;;5083897;28;20566;-72
2024/03/19 04:09:56;;;;;;;3.58;2.67;;;1.60;99.90;;;;;;5079750;28;20492;-73
2024/03/19 04:12:22;;;;;;;6.50;2.65;;;1.60;99.90;;;;;;5081357;28;20035;-72
2024/03/19 04:14:48;;;;;;;3.28;2.70;;;1.60;99.90;;;;;;5081455;28;20028;-72
2024/03/19 04:17:13;;;;;;;5.63;2.90;;;1.60;99.90;;;;;;5082668;28;20043;-73
2024/03/19 04:19:39;;;;;;;5.68;3.00;;;1.70;99.90;;;;;;5082012;28;20032;-72
2024/03/19 04:22:05;;;;;;;4.43;2.80;;;1.60;99.90;;;;;;5079204;28;20028;-73
2024/03/19 04:24:31;;;;;;;4.22;2.50;;;1.70;99.90;;;;;;5083605;28;20032;-73
2024/03/19 04:26:57;;;;;;;4.18;3.08;;;1.70;99.90;;;;;;5082925;28;20691;-72
2024/03/19 04:29:22;;;;;;;3.92;2.65;;;1.70;99.90;;;;;;5084445;28;20098;-73
2024/03/19 04:31:48;;;;;;;6.15;3.22;;;1.70;99.90;;;;;;5086175;28;20558;-72
2024/03/19 04:34:14;;;;;;;5.25;3.00;;;1.80;99.90;;;;;;5084513;28;20024;-72
2024/03/19 04:36:40;;;;;;;5.82;3.35;;;1.80;99.90;;;;;;5085127;28;20031;-72
2024/03/19 04:39:10;;;;;;;4.57;3.08;;;1.80;99.90;;;;;;5085067;28;20040;-72
2024/03/19 04:41:39;;;;;;;5.65;3.30;;;1.70;99.90;;;;;;5083476;28;20051;-72
2024/03/19 04:44:06;;;;;;;5.93;2.85;;;1.80;99.90;;;;;;5083814;28;20387;-73
2024/03/19 04:46:32;;;;;;;4.88;3.05;;;1.90;99.90;;;;;;5081907;28;20442;-72
2024/03/19 04:48:58;;;;;;;5.53;3.53;;;1.80;99.90;;;;;;5085291;28;20425;-72
2024/03/19 04:51:25;;;;;;;5.78;3.03;;;1.90;99.90;;;;;;5085873;28;20105;-72
2024/03/19 04:53:51;;;;;;;3.97;2.83;;;1.80;99.90;;;;;;5083185;28;20052;-72
2024/03/19 04:56:18;;;;;;;7.15;3.45;;;1.90;99.90;;;;;;5083094;28;20060;-72
2024/03/19 04:58:43;;;;;;;4.57;3.28;;;2.00;99.90;;;;;;5083374;28;20105;-72
2024/03/19 05:01:14;;;;;;;6.57;3.60;;;2.00;99.90;;;;;;5082075;28;20039;-72
2024/03/19 05:03:41;;;;;;;8.63;3.70;;;2.00;99.90;;;;;;5083220;28;20024;-72
2024/03/19 05:06:08;;;;;;;4.95;3.50;;;2.00;99.90;;;;;;5083031;28;20035;-72
2024/03/19 05:08:34;;;;;;;6.88;3.65;;;1.90;99.90;;;;;;5082882;28;20763;-72
2024/03/19 05:11:00;;;;;;;7.53;3.83;;;2.00;99.90;;;;;;5082353;28;20035;-72
2024/03/19 05:13:26;;;;;;;7.00;3.67;;;2.00;99.90;;;;;;5084412;28;20085;-72
2024/03/19 05:15:52;;;;;;;6.15;3.70;;;2.00;99.90;;;;;;5084220;28;20051;-72
2024/03/19 05:18:17;;;;;;;6.63;3.33;;;2.00;99.90;;;;;;5080866;28;20028;-72
2024/03/19 05:20:43;;;;;;;5.53;3.25;;;1.90;99.90;;;;;;5082317;28;20123;-72
2024/03/19 05:23:09;;;;;;;6.78;3.72;;;1.90;99.90;;;;;;5082711;28;20074;-73
2024/03/19 05:25:35;;;;;;;6.63;3.65;;;1.90;99.90;;;;;;5081562;28;20024;-72
2024/03/19 05:28:01;;;;;;;6.53;3.88;;;1.90;99.90;;;;;;5081768;28;20642;-72
2024/03/19 05:30:27;;;;;;;4.97;3.20;;;1.90;99.90;;;;;;5084490;28;20028;-73
2024/03/19 05:32:54;;;;;;;8.15;4.43;;;1.90;99.90;;;;;;5084253;28;20027;-73
2024/03/19 05:35:20;;;;;;;10.13;4.53;;;1.80;99.90;;;;;;5082494;28;20076;-72
2024/03/19 05:37:45;;;;;;;8.35;3.80;;;1.80;99.90;;;;;;5083915;28;20487;-72
2024/03/19 05:40:12;;;;;;;5.32;3.20;;;1.90;99.90;;;;;;5083353;28;20036;-72
2024/03/19 05:42:39;;;;;;;4.68;3.40;;;1.90;99.90;;;;;;5084290;28;20142;-72
2024/03/19 05:45:05;;;;;;;4.65;3.00;;;1.90;99.90;;;;;;5081922;28;20024;-72
2024/03/19 05:47:31;;;;;;;9.77;3.97;;;1.90;99.90;;;;;;5083597;28;20028;-72
2024/03/19 05:49:57;;;;;;;6.32;3.92;;;1.90;99.90;;;;;;5083482;28;20036;-72
2024/03/19 05:52:24;;;;;;;11.15;3.70;;;2.00;99.90;;;;;;5084859;28;20111;-72
2024/03/19 05:54:50;;;;;;;5.30;3.67;;;2.10;99.90;;;;;;5082539;28;20035;-72
2024/03/19 05:57:17;;;;;;;7.05;3.78;;;2.20;99.90;;;;;;5082578;28;20028;-72
2024/03/19 05:59:43;;;;;;;8.00;3.70;;;2.20;99.90;;;;;;5081438;28;20437;-73
2024/03/19 06:02:09;;;;;;;11.98;4.15;;;2.30;99.90;;;;;;5081609;28;20028;-72
2024/03/19 06:04:35;;;;;;;8.13;3.65;;;2.30;99.90;;;;;;5084300;28;20024;-72
2024/03/19 06:07:01;;;;;;;7.13;4.68;;;2.20;99.90;;;;;;5085357;28;20028;-72
2024/03/19 06:09:29;;;;;;;7.95;4.60;;;2.30;99.90;;;;;;5082398;28;20441;-73
2024/03/19 06:11:56;;;;;;;9.55;4.07;;;2.30;99.90;;;;;;5082400;28;20024;-72
2024/03/19 06:14:22;;;;;;;10.25;5.15;;;2.50;99.90;;;;;;5082282;28;20082;-73
2024/03/19 06:16:48;;;;;;;8.15;4.43;;;2.50;99.90;;;;;;5081842;28;20039;-72
2024/03/19 06:19:15;;;;;;;8.43;4.07;;;2.50;99.90;;;;;;5082635;28;20016;-72
2024/03/19 06:21:42;;;;;;;8.63;4.55;;;2.50;99.90;;;;;;5082472;28;20024;-72
2024/03/19 06:24:08;;;;;;;7.53;3.83;;;2.50;99.90;;;;;;5079412;28;20027;-72
2024/03/19 06:26:34;;;;;;;6.80;4.38;;;2.60;99.90;;;;;;5081403;28;20031;-72
2024/03/19 06:29:00;;;;;;;7.05;3.85;;;2.60;99.90;;;;;;5078332;28;20043;-72
2024/03/19 06:31:25;;;;;;;9.27;4.32;;;2.60;99.90;;;;;;5081168;28;20027;-72
2024/03/19 06:33:52;;;;;;;8.15;4.25;;;2.60;99.90;;;;;;5081516;28;20036;-72
2024/03/19 06:36:18;;;;;;;9.93;4.60;;;2.70;99.90;;;;;;5079352;28;20102;-72
2024/03/19 06:38:43;;;;;;;11.40;5.22;;;2.60;99.90;;;;;;5082760;28;20024;-72
2024/03/19 06:41:10;;;;;;;9.88;5.18;;;2.70;99.90;;;;;;5082646;28;20868;-72
2024/03/19 06:43:36;;;;;;;11.13;5.18;;;2.80;99.90;;;;;;5081358;28;20081;-72
2024/03/19 06:46:02;;;;;;;9.10;4.82;;;2.80;99.90;;;;;;5082589;28;20440;-71
2024/03/19 06:48:28;;;;;;;9.43;4.95;;;2.90;99.90;;;;;;5082327;28;20028;-73
2024/03/19 06:50:54;;;;;;;8.55;5.35;;;2.90;99.90;;;;;;5081248;28;20028;-72
2024/03/19 06:53:21;;;;;;;14.43;5.70;;;2.90;99.90;;;;;;5081244;28;20407;-71
2024/03/19 06:55:48;;;;;;;10.05;5.07;;;3.00;99.90;;;;;;5082161;28;20036;-72
2024/03/19 06:58:14;;;;;;;11.10;5.10;;;3.00;99.90;;;;;;5084945;28;20032;-72
2024/03/19 07:00:40;;;;;;;9.93;5.72;;;3.00;99.90;;;;;;5081044;28;20028;-71
2024/03/19 07:03:06;;;;;;;10.45;5.00;;;3.00;99.90;;;;;;5080609;28;20055;-72
2024/03/19 07:05:33;;;;;;;9.52;5.47;;;3.10;99.90;;;;;;5082185;28;20458;-71
2024/03/19 07:07:59;;;;;;;11.80;5.85;;;3.00;99.90;;;;;;5081378;28;20039;-71
2024/03/19 07:10:28;;;;;;;11.43;5.32;;;3.10;99.90;;;;;;5082080;28;20028;-72
2024/03/19 07:12:54;;;;;;;9.48;5.43;;;3.10;99.90;;;;;;5079815;28;20024;-72
2024/03/19 07:15:20;;;;;;;9.75;5.07;;;3.10;99.90;;;;;;5081786;28;20031;-71
2024/03/19 07:17:49;;;;;;;10.75;5.63;;;3.30;99.90;;;;;;5080363;28;20762;-72
2024/03/19 07:20:18;;;;;;;9.75;6.10;;;3.60;99.90;;;;;;5081818;28;20491;-70
2024/03/19 07:22:45;;;;;;;12.15;6.38;;;3.80;99.40;;;;;;5083312;28;20035;-70
2024/03/19 07:25:12;;;;;;;10.15;6.13;;;4.10;99.50;;;;;;5081754;28;20854;-72
2024/03/19 07:27:40;;;;;;;13.45;6.53;;;4.60;98.90;;;;;;5082661;28;20301;-71
2024/03/19 07:30:11;;;;;;;14.52;6.40;;;5.30;97.20;;;;;;5081326;28;20062;-72
2024/03/19 07:32:38;;;;;;;13.00;6.85;;;5.90;96.30;;;;;;5080551;28;20034;-70
2024/03/19 07:35:04;;;;;;;15.60;7.07;;;6.60;94.80;;;;;;5080972;28;20036;-71
2024/03/19 07:37:31;;;;;;;14.93;7.07;;;7.00;92.80;;;;;;5083561;28;20499;-72
2024/03/19 07:39:57;;;;;;;13.18;8.02;;;7.10;92.10;;;;;;5083045;28;20046;-71
2024/03/19 07:42:23;;;;;;;14.75;6.97;;;7.30;91.80;;;;;;5081522;28;20028;-71
2024/03/19 07:44:52;;;;;;;15.02;6.75;;;7.70;91.10;;;;;;5082962;28;20016;-72
2024/03/19 07:47:19;;;;;;;11.18;6.63;;;8.10;90.00;;;;;;5081034;28;20027;-72
2024/03/19 07:49:48;;;;;;;13.15;7.13;;;8.50;88.30;;;;;;5083118;28;20043;-72
2024/03/19 07:52:14;;;;;;;12.40;6.60;;;8.70;86.50;;;;;;5081972;28;20159;-72
2024/03/19 07:54:41;;;;;;;13.45;6.78;;;8.70;85.80;;;;;;5084076;28;20024;-71
2024/03/19 07:57:07;;;;;;;13.32;6.63;;;8.70;85.20;;;;;;5078126;28;20020;-72
2024/03/19 07:59:33;;;;;;;15.05;6.50;;;8.90;84.10;;;;;;5082870;28;20023;-71
2024/03/19 08:01:58;;;;;;;9.93;6.45;;;9.20;83.10;;;;;;5086309;28;20806;-72
2024/03/19 08:04:25;;;;;;;14.80;6.25;;;9.30;80.80;;;;;;5087356;28;20028;-73
2024/03/19 08:06:51;;;;;;;11.88;6.40;;;9.60;79.50;;;;;;5084052;28;20353;-72
2024/03/19 08:09:18;;;;;;;11.98;6.85;;;9.90;78.90;;;;;;5083487;28;20039;-72
2024/03/19 08:11:44;;;;;;;15.25;7.30;;;10.10;76.00;;;;;;5085544;28;20581;-72
2024/03/19 08:14:10;;;;;;;9.10;6.07;;;10.10;77.30;;;;;;5085208;28;20028;-72
2024/03/19 08:16:37;;;;;;;11.25;6.60;;;9.90;76.00;;;;;;5085016;28;20043;-72
2024/03/19 08:19:03;;;;;;;10.90;6.38;;;9.90;77.00;;;;;;5085429;28;20024;-72
2024/03/19 08:21:29;;;;;;;13.30;6.80;;;10.10;76.80;;;;;;5083666;28;20036;-72
2024/03/19 08:23:55;;;;;;;14.80;5.72;;;10.10;76.60;;;;;;5083763;28;20031;-66
2024/03/19 08:26:21;;;;;;;11.10;6.00;;;9.90;75.60;;;;;;5083212;28;20028;-72
2024/03/19 08:28:47;;;;;;;9.57;5.90;;;9.80;76.90;;;;;;5084551;28;20016;-71
2024/03/19 08:31:13;;;;;;;9.75;5.78;;;9.50;75.50;;;;;;5085184;28;20077;-72
2024/03/19 08:33:39;;;;;;;12.23;6.47;;;9.20;76.80;;;;;;5084760;28;20482;-73
2024/03/19 08:36:06;;;;;;;11.38;6.47;;;8.90;77.80;;;;;;5086575;28;20023;-72
2024/03/19 08:38:35;;;;;;;11.25;6.55;;;9.00;78.90;;;;;;5084207;28;20028;-72
2024/03/19 08:41:04;;;;;;;11.18;6.05;;;8.90;77.80;;;;;;5086420;28;20036;-72
2024/03/19 08:43:30;;;;;;;11.85;6.28;;;9.10;76.80;;;;;;5086078;28;20054;-69
2024/03/19 08:45:56;;;;;;;14.00;6.80;;;9.00;77.10;;;;;;5085775;28;20070;-72
2024/03/19 08:48:22;;;;;;;10.63;6.95;;;9.10;77.30;;;;;;5084874;28;20495;-72
2024/03/19 08:50:48;;;;;;;13.90;7.57;;;9.40;78.20;;;;;;5083098;28;20427;-72
2024/03/19 08:53:14;;;;;;;10.73;6.45;;;9.40;78.40;;;;;;5082518;28;20032;-74
2024/03/19 08:55:42;;;;;;;11.20;5.75;;;9.20;76.10;;;;;;5082425;28;20028;-70
2024/03/19 08:58:09;;;;;;;11.02;6.93;;;9.20;76.90;;;;;;5082720;28;20066;-70
2024/03/19 09:00:38;;;;;;;12.73;7.22;;;9.20;77.30;;;;;;5066774;28;20453;-69
2024/03/19 09:03:07;;;;;;;12.55;6.68;;;9.40;76.20;;;;;;5083628;28;20107;-70
2024/03/19 09:05:33;;;;;;;11.07;7.03;;;9.70;76.50;;;;;;5085000;28;20020;-70
2024/03/19 09:07:59;;;;;;;15.32;8.02;;;9.90;74.50;;;;;;5083745;28;20020;-66
2024/03/19 09:10:25;;;;;;;15.63;7.78;;;10.20;74.60;;;;;;5082117;28;20123;-67
2024/03/19 09:12:50;;;;;;;12.45;7.97;;;10.50;73.90;;;;;;5084965;28;20060;-66
2024/03/19 09:15:16;;;;;;;11.95;7.68;;;10.80;72.70;;;;;;5083852;28;20054;-67
2024/03/19 09:17:42;;;;;;;12.50;7.63;;;11.00;72.40;;;;;;5083533;28;20028;-66
2024/03/19 09:20:10;;;;;;;14.68;7.55;;;11.40;71.30;;;;;;5084115;28;20081;-67
2024/03/19 09:22:35;;;;;;;12.38;7.38;;;11.60;70.00;;;;;;5081598;28;20032;-66
2024/03/19 09:25:02;;;;;;;11.80;6.88;;;12.10;69.10;;;;;;5084339;28;20036;-69
2024/03/19 09:27:28;;;;;;;10.90;7.57;;;12.50;67.70;;;;;;5083703;28;20478;-69
2024/03/19 09:29:55;;;;;;;12.45;7.88;;;12.70;65.70;;;;;;5086133;28;20050;-69
2024/03/19 09:32:22;;;;;;;13.02;7.70;;;12.90;66.50;;;;;;5082058;28;20128;-69
2024/03/19 09:34:48;;;;;;;13.65;7.68;;;12.80;66.00;;;;;;5085329;28;20028;-69
2024/03/19 09:37:15;;;;;;;11.10;7.38;;;12.40;65.90;;;;;;5084106;28;20108;-69
2024/03/19 09:39:41;;;;;;;12.02;7.68;;;12.10;67.80;;;;;;5083259;28;20035;-70
2024/03/19 09:42:15;;;;;;;12.45;7.75;;;11.60;68.40;;;;;;5084035;28;20051;-69
2024/03/19 09:44:44;;;;;;;13.25;7.88;;;11.30;68.70;;;;;;5083651;28;20035;-70
2024/03/19 09:47:16;;;;;;;11.68;7.38;;;10.80;68.30;;;;;;5080451;28;20040;-62
2024/03/19 09:49:42;;;;;;;13.82;8.30;;;10.90;70.30;;;;;;5083050;28;20039;-67
2024/03/19 09:52:08;;;;;;;13.38;7.65;;;11.10;69.30;;;;;;5084570;28;20038;-70
2024/03/19 09:54:36;;;;;;;15.25;8.40;;;11.20;68.70;;;;;;5083007;28;20043;-72
2024/03/19 09:57:04;;;;;;;12.00;7.57;;;11.20;69.20;;;;;;5083349;28;20063;-68
2024/03/19 09:59:31;;;;;;;11.93;7.43;;;10.90;69.50;;;;;;5081910;28;20126;-69
2024/03/19 10:01:57;;;;;;;10.85;8.05;;;10.70;69.60;;;;;;5083771;28;20039;-68
2024/03/19 10:04:24;;;;;;;11.73;7.65;;;10.80;69.10;;;;;;5082650;28;20484;-68
2024/03/19 10:06:50;;;;;;;11.10;6.38;;;11.10;68.20;;;;;;5079237;28;20024;-67
2024/03/19 10:09:19;;;;;;;10.57;6.32;;;11.50;65.90;;;;;;5081104;28;20028;-68
2024/03/19 10:11:46;;;;;;;12.65;7.32;;;11.70;64.70;;;;;;5083762;28;20043;-68
2024/03/19 10:14:13;;;;;;;11.95;6.25;;;12.10;64.80;;;;;;5067225;28;20706;-67
2024/03/19 10:16:50;;;;;;;10.13;6.70;;;12.20;62.90;;;;;;5083366;28;20060;-68
2024/03/19 10:19:19;;;;;;;8.90;6.03;;;12.90;63.60;;;;;;5083396;28;20028;-69
2024/03/19 10:21:45;;;;;;;10.70;6.18;;;12.90;60.20;;;;;;5079986;28;20032;-68
2024/03/19 10:24:16;;;;;;;9.57;6.22;;;13.40;60.40;;;;;;5084396;28;20028;-69
2024/03/19 10:26:44;;;;;;;9.27;6.40;;;13.50;58.30;;;;;;5082317;28;20032;-69
2024/03/19 10:29:15;;;;;;;9.52;6.28;;;13.60;57.90;;;;;;5083175;28;20395;-69
2024/03/19 10:31:43;;;;;;;8.80;6.10;;;13.60;56.20;;;;;;5082479;28;20093;-69
2024/03/19 10:34:20;;;;;;;8.68;6.15;;;14.00;56.40;;;;;;5080241;28;20028;-69
2024/03/19 10:36:50;;;;;;;8.70;5.78;;;14.60;55.90;;;;;;5083917;28;20151;-69
2024/03/19 10:39:20;;;;;;;13.80;6.10;;;15.00;54.10;;;;;;5082301;28;20050;-70
2024/03/19 10:41:48;;;;;;;8.98;5.80;;;15.50;54.20;;;;;;5080565;28;20023;-69
2024/03/19 10:44:16;;;;;;;8.80;5.85;;;15.90;51.90;;;;;;5079403;28;20037;-71
2024/03/19 10:46:43;;;;;;;8.98;6.35;;;15.80;51.90;;;;;;5080570;28;20554;-70
2024/03/19 10:49:17;;;;;;;9.38;6.00;;;15.90;51.20;;;;;;5080799;28;20747;-68
2024/03/19 10:51:49;;;;;;;10.93;6.43;;;16.20;51.00;;;;;;5083893;28;20024;-70
2024/03/19 10:54:17;;;;;;;9.27;5.30;;;15.50;53.00;;;;;;5082282;28;20028;-69
2024/03/19 10:56:43;;;;;;;11.35;6.25;;;14.80;51.70;;;;;;5082702;28;20058;-69
2024/03/19 10:59:13;;;;;;;8.13;5.85;;;14.40;53.30;;;;;;5084493;28;20135;-69
2024/03/19 11:01:50;;;;;;;8.45;5.63;;;14.60;52.10;;;;;;5082688;28;20055;-66
2024/03/19 11:04:16;;;;;;;9.77;5.72;;;15.00;52.40;;;;;;5081408;28;20026;-69
2024/03/19 11:06:53;;;;;;;11.00;6.25;;;15.30;51.80;;;;;;5082874;28;20039;-69
2024/03/19 11:09:22;;;;;;;9.95;6.38;;;15.20;51.30;;;;;;5084387;28;20035;-69
2024/03/19 11:11:55;;;;;;;11.68;6.13;;;15.80;50.90;;;;;;5080389;28;20083;-68
2024/03/19 11:14:26;;;;;;;10.85;6.68;;;15.60;51.50;;;;;;5064873;28;20805;-70
2024/03/19 11:16:52;;;;;;;11.13;5.72;;;15.10;52.40;;;;;;5081596;28;20062;-73
2024/03/19 11:19:28;;;;;;;9.68;5.60;;;14.80;52.40;;;;;;5083060;28;20024;-74
2024/03/19 11:21:56;;;;;;;8.90;5.38;;;14.00;53.80;;;;;;5081807;28;20397;-73
2024/03/19 11:24:37;;;;;;;9.07;5.55;;;13.10;55.40;;;;;;5082624;28;20364;-73
2024/03/19 11:27:05;;;;;;;9.65;5.70;;;12.70;57.10;;;;;;5084225;28;20064;-74
2024/03/19 11:29:34;;;;;;;8.65;5.60;;;12.30;57.70;;;;;;5082682;28;20028;-73
2024/03/19 11:32:01;;;;;;;7.88;5.35;;;11.90;57.40;;;;;;5082516;28;20089;-74
2024/03/19 11:34:28;;;;;;;8.65;5.50;;;11.70;58.70;;;;;;5080323;28;20043;-75
2024/03/19 11:36:55;;;;;;;8.85;5.15;;;11.70;58.50;;;;;;5083651;28;20031;-72
2024/03/19 11:39:22;;;;;;;11.50;5.03;;;11.80;59.30;;;;;;5081948;28;20034;-74
2024/03/19 11:41:49;;;;;;;8.70;5.00;;;11.80;59.80;;;;;;5081743;28;20055;-72
2024/03/19 11:44:21;;;;;;;8.48;5.38;;;11.70;58.70;;;;;;5085064;28;20028;-71
2024/03/19 11:46:51;;;;;;;7.53;4.93;;;11.70;59.50;;;;;;5081743;28;20032;-70
2024/03/19 11:49:34;;;;;;;7.00;4.93;;;11.80;58.40;;;;;;5081390;28;20039;-72
2024/03/19 11:52:08;;;;;;;8.27;4.90;;;11.80;59.30;;;;;;5081641;28;20384;-72
2024/03/19 11:54:39;;;;;;;8.82;4.75;;;11.80;58.00;;;;;;5080127;28;20024;-69
2024/03/19 11:57:05;;;;;;;11.50;5.38;;;11.90;58.10;;;;;;5080914;28;20110;-69
2024/03/19 11:59:31;;;;;;;9.18;5.05;;;11.80;59.60;;;;;;5082877;28;20039;-69
2024/03/19 12:01:58;;;;;;;8.90;4.82;;;11.60;56.90;;;;;;5083625;28;20032;-66
2024/03/19 12:04:25;;;;;;;8.10;5.20;;;11.50;58.20;;;;;;5081364;28;20020;-69
2024/03/19 12:06:52;;;;;;;9.50;4.57;;;11.60;59.50;;;;;;5080370;28;20113;-69
2024/03/19 12:09:23;;;;;;;7.43;4.97;;;11.50;58.40;;;;;;5081841;28;20030;-69
2024/03/19 12:11:50;;;;;;;7.65;4.30;;;11.50;59.20;;;;;;5081405;28;20733;-68
2024/03/19 12:14:17;;;;;;;12.57;6.28;;;11.50;59.20;;;;;;5059824;28;20063;-68
2024/03/19 12:16:44;;;;;;;10.73;4.43;;;11.50;57.20;;;;;;5027729;28;20834;-69
2024/03/19 12:19:14;;;;;;;7.32;4.93;;;11.50;58.00;;;;;;5029455;28;20098;-67
2024/03/19 12:21:42;;;;;;;7.05;4.57;;;11.60;57.70;;;;;;5036793;28;20037;-69
2024/03/19 12:24:15;;;;;;;7.78;4.22;;;11.40;58.00;;;;;;5037894;28;20138;-69
2024/03/19 12:26:43;;;;;;;6.90;4.20;;;11.50;58.80;;;;;;5041310;28;20443;-68
2024/03/19 12:29:13;;;;;;;9.63;4.50;;;11.50;57.70;;;;;;5035356;28;20029;-68
2024/03/19 12:31:48;;;;;;;6.55;4.20;;;11.60;57.90;;;;;;5039492;28;20759;-67
2024/03/19 12:37:11;;;;;;;7.85;4.50;;;11.50;58.00;;;;;;5039745;28;20033;-68
2024/03/19 12:39:37;;;;;;;8.02;4.43;;;11.40;58.70;;;;;;5039797;28;20036;-68
2024/03/19 12:42:16;;;;;;;5.50;4.35;;;11.50;59.30;;;;;;5037612;28;20044;-69
2024/03/19 12:44:44;;;;;;;6.57;4.53;;;11.60;58.40;;;;;;5042381;28;20033;-68
2024/03/19 12:47:11;;;;;;;7.07;4.32;;;11.60;56.80;;;;;;5041269;28;20029;-68
2024/03/19 12:49:39;;;;;;;10.60;4.90;;;11.50;57.10;;;;;;5039891;28;20029;-68
2024/03/19 12:52:05;;;;;;;11.23;5.30;;;11.50;57.00;;;;;;5040687;28;20044;-72